Time;durP1;ratioP1;P1;durP2;ratioP2;P2;SDS_P1;SDS_P2;PMS_P1;PMS_P2;Temp;Humidity;BMP_temperature;BMP_pressure;BME280_temperature;BME280_humidity;BME280_pressure;Samples;Min_cycle;Max_cycle;Signal;HPM_P1;HPM_P2
2023/06/17 00:00:59;;;;;;;3.17;2.87;;;23.60;41.00;;;;;;5042243;28;20221;-72
2023/06/17 00:03:25;;;;;;;2.67;2.57;;;23.60;41.00;;;;;;5043790;28;20619;-72
2023/06/17 00:05:53;;;;;;;2.60;2.50;;;23.60;41.00;;;;;;5035223;28;20226;-72
2023/06/17 00:08:19;;;;;;;2.80;2.63;;;23.60;41.10;;;;;;5042318;28;20765;-73
2023/06/17 00:10:45;;;;;;;2.60;2.50;;;23.60;41.00;;;;;;5042962;28;20439;-72
2023/06/17 00:13:19;;;;;;;3.53;3.33;;;23.60;41.00;;;;;;5041499;28;21202;-72
2023/06/17 00:15:47;;;;;;;2.50;2.40;;;23.60;41.10;;;;;;5038003;28;20337;-72
2023/06/17 00:18:13;;;;;;;4.97;2.80;;;23.60;41.10;;;;;;5036700;28;21103;-72
2023/06/17 00:20:38;;;;;;;2.93;2.73;;;23.60;41.10;;;;;;5040330;28;20541;-72
2023/06/17 00:23:04;;;;;;;3.00;2.90;;;23.60;41.10;;;;;;5038420;28;20245;-72
2023/06/17 00:25:30;;;;;;;3.33;3.13;;;23.60;41.10;;;;;;5042488;28;20226;-72
2023/06/17 00:27:55;;;;;;;3.33;3.13;;;23.60;41.10;;;;;;5043169;28;20733;-72
2023/06/17 00:30:21;;;;;;;2.67;2.57;;;23.60;41.10;;;;;;5041075;28;20226;-72
2023/06/17 00:32:46;;;;;;;3.23;3.03;;;23.60;41.00;;;;;;5043126;28;20222;-72
2023/06/17 00:35:12;;;;;;;2.90;2.80;;;23.60;41.10;;;;;;5043562;28;20222;-72
2023/06/17 00:37:37;;;;;;;2.83;2.63;;;23.60;41.10;;;;;;5037967;28;20704;-72
2023/06/17 00:40:07;;;;;;;3.33;3.03;;;23.60;41.10;;;;;;5041790;28;20229;-73
2023/06/17 00:42:34;;;;;;;3.20;3.00;;;23.60;41.00;;;;;;5038535;28;20238;-72
2023/06/17 00:44:59;;;;;;;3.37;3.27;;;23.60;41.10;;;;;;5042414;28;20881;-72
2023/06/17 00:47:25;;;;;;;3.43;3.23;;;23.60;41.10;;;;;;5041149;28;20485;-72
2023/06/17 00:49:53;;;;;;;2.80;2.60;;;23.60;41.00;;;;;;5038945;28;20222;-72
2023/06/17 00:52:18;;;;;;;2.80;2.70;;;23.60;41.00;;;;;;5038827;28;20218;-72
2023/06/17 00:54:44;;;;;;;2.97;2.80;;;23.60;41.00;;;;;;5035543;28;20466;-72
2023/06/17 00:57:13;;;;;;;3.20;3.00;;;23.60;41.00;;;;;;5041372;28;20326;-72
2023/06/17 00:59:41;;;;;;;3.30;3.10;;;23.60;41.00;;;;;;5039712;28;20245;-72
2023/06/17 01:02:09;;;;;;;3.20;3.00;;;23.60;41.00;;;;;;5041949;28;20471;-72
2023/06/17 01:04:42;;;;;;;3.20;2.93;;;23.60;41.00;;;;;;5040440;28;20471;-72
2023/06/17 01:07:35;;;;;;;2.73;2.60;;;23.60;40.90;;;;;;5035713;28;20463;-72
2023/06/17 01:10:33;;;;;;;2.97;2.77;;;23.60;40.90;;;;;;5034600;28;20475;-72
2023/06/17 01:13:00;;;;;;;3.17;2.97;;;23.60;40.80;;;;;;5038287;28;20468;-72
2023/06/17 01:15:27;;;;;;;3.37;3.17;;;23.50;40.80;;;;;;5053923;28;20470;-72
2023/06/17 01:17:54;;;;;;;3.27;3.07;;;23.60;40.90;;;;;;5037846;28;20467;-72
2023/06/17 01:20:20;;;;;;;3.27;3.07;;;23.60;40.90;;;;;;5036021;28;20498;-72
2023/06/17 01:22:48;;;;;;;3.20;3.00;;;23.50;40.80;;;;;;5030097;28;20620;-73
2023/06/17 01:25:14;;;;;;;2.97;2.87;;;23.60;40.80;;;;;;5039100;28;20228;-72
2023/06/17 01:27:41;;;;;;;3.20;3.00;;;23.60;40.80;;;;;;5041576;28;20494;-72
2023/06/17 01:30:08;;;;;;;3.60;3.40;;;23.60;40.80;;;;;;5037845;28;20697;-72
2023/06/17 01:32:33;;;;;;;3.73;3.53;;;23.60;40.80;;;;;;5041629;28;20816;-72
2023/06/17 01:35:14;;;;;;;3.33;3.13;;;23.60;40.80;;;;;;5035763;28;20572;-72
2023/06/17 01:37:53;;;;;;;3.70;3.50;;;23.60;40.80;;;;;;5039733;28;20284;-72
2023/06/17 01:40:21;;;;;;;3.50;3.30;;;23.60;40.80;;;;;;5040460;28;20455;-72
2023/06/17 01:42:50;;;;;;;3.03;2.73;;;23.50;40.80;;;;;;5036999;28;20546;-72
2023/06/17 01:45:18;;;;;;;3.13;2.93;;;23.50;40.70;;;;;;5039330;28;20451;-72
2023/06/17 01:47:44;;;;;;;3.33;3.13;;;23.50;40.70;;;;;;5039840;28;20464;-73
2023/06/17 01:50:10;;;;;;;2.87;2.67;;;23.50;40.70;;;;;;5037341;28;21004;-72
2023/06/17 01:52:35;;;;;;;3.20;3.00;;;23.50;40.70;;;;;;5037078;28;20320;-73
2023/06/17 01:55:02;;;;;;;3.50;3.30;;;23.50;40.70;;;;;;5033811;28;21042;-73
2023/06/17 01:57:28;;;;;;;3.40;3.20;;;23.50;41.50;;;;;;5041483;28;20237;-73
2023/06/17 01:59:54;;;;;;;3.87;3.67;;;23.50;40.70;;;;;;5040859;28;20473;-73
2023/06/17 02:02:23;;;;;;;3.53;3.33;;;23.50;40.70;;;;;;5042369;28;20279;-72
2023/06/17 02:04:49;;;;;;;3.47;3.27;;;23.50;40.70;;;;;;5039802;28;20214;-73
2023/06/17 02:07:18;;;;;;;3.47;3.27;;;23.50;40.70;;;;;;5033196;28;20469;-73
2023/06/17 02:09:47;;;;;;;3.57;3.37;;;23.50;40.70;;;;;;5036145;28;20236;-73
2023/06/17 02:12:13;;;;;;;3.47;3.27;;;23.50;40.70;;;;;;5036538;28;20490;-73
2023/06/17 02:14:38;;;;;;;3.53;3.33;;;23.50;40.70;;;;;;5036429;28;20456;-73
2023/06/17 02:17:04;;;;;;;4.30;4.10;;;23.50;40.70;;;;;;5038954;28;20451;-73
2023/06/17 02:19:31;;;;;;;3.60;3.40;;;23.50;40.70;;;;;;5039065;28;20225;-73
2023/06/17 02:21:58;;;;;;;3.37;3.17;;;23.50;40.70;;;;;;5033606;28;20705;-73
2023/06/17 02:24:24;;;;;;;3.70;3.50;;;23.50;40.60;;;;;;5036926;28;20470;-73
2023/06/17 02:26:50;;;;;;;3.47;3.30;;;23.50;40.60;;;;;;5038362;28;20830;-73
2023/06/17 02:29:16;;;;;;;3.60;3.40;;;23.50;40.60;;;;;;5039845;28;20222;-73
2023/06/17 02:31:42;;;;;;;3.80;3.40;;;23.50;40.60;;;;;;5040541;28;20227;-73
2023/06/17 02:34:09;;;;;;;3.37;3.20;;;23.50;40.60;;;;;;5029228;28;20475;-73
2023/06/17 02:36:37;;;;;;;3.87;3.67;;;23.50;40.60;;;;;;5033046;28;20288;-73
2023/06/17 02:39:02;;;;;;;3.77;3.57;;;23.50;40.60;;;;;;5035432;28;20475;-72
2023/06/17 02:41:28;;;;;;;3.40;3.23;;;23.50;40.50;;;;;;5037015;28;20474;-72
2023/06/17 02:43:53;;;;;;;3.70;3.50;;;23.50;40.50;;;;;;5036287;28;20269;-72
2023/06/17 02:46:19;;;;;;;3.87;3.60;;;23.50;40.30;;;;;;5042767;28;20764;-73
2023/06/17 02:48:44;;;;;;;3.80;3.60;;;23.50;40.20;;;;;;5036286;28;20230;-72
2023/06/17 02:51:10;;;;;;;4.73;4.37;;;23.50;40.20;;;;;;5041262;28;20282;-73
2023/06/17 02:53:35;;;;;;;3.73;3.53;;;23.50;40.10;;;;;;5035175;28;20229;-73
2023/06/17 02:56:01;;;;;;;3.60;3.40;;;23.50;40.80;;;;;;5037500;28;20280;-72
2023/06/17 02:58:27;;;;;;;4.00;3.80;;;23.50;40.00;;;;;;5039715;28;20225;-72
2023/06/17 03:00:57;;;;;;;5.10;3.60;;;23.50;39.90;;;;;;5026112;28;20219;-73
2023/06/17 03:03:33;;;;;;;3.97;3.77;;;23.50;39.80;;;;;;5036698;28;20237;-72
2023/06/17 03:06:03;;;;;;;3.87;3.57;;;23.50;39.70;;;;;;5034811;28;20466;-72
2023/06/17 03:08:39;;;;;;;3.80;3.60;;;23.50;39.60;;;;;;5036057;28;20541;-72
2023/06/17 03:11:04;;;;;;;3.90;3.70;;;23.50;39.50;;;;;;5030460;28;20477;-72
2023/06/17 03:13:30;;;;;;;4.10;3.90;;;23.50;39.30;;;;;;5034395;28;20455;-73
2023/06/17 03:15:58;;;;;;;4.00;3.80;;;23.50;39.20;;;;;;5039198;28;20286;-72
2023/06/17 03:18:23;;;;;;;4.20;4.00;;;23.50;39.20;;;;;;5034634;28;20701;-72
2023/06/17 03:20:51;;;;;;;4.10;3.90;;;23.50;39.10;;;;;;5037875;28;20481;-72
2023/06/17 03:23:17;;;;;;;4.20;3.90;;;23.50;39.00;;;;;;5034527;28;20286;-72
2023/06/17 03:25:44;;;;;;;3.70;3.50;;;23.50;38.90;;;;;;5036116;28;20964;-73
2023/06/17 03:28:09;;;;;;;4.30;3.97;;;23.50;38.90;;;;;;5032218;28;20459;-72
2023/06/17 03:30:37;;;;;;;3.73;3.53;;;23.50;38.80;;;;;;5041135;28;20950;-73
2023/06/17 03:33:03;;;;;;;4.47;4.17;;;23.50;38.70;;;;;;5035587;28;20291;-73
2023/06/17 03:35:28;;;;;;;4.40;4.20;;;23.50;38.60;;;;;;5040419;28;20467;-72
2023/06/17 03:37:54;;;;;;;4.57;4.30;;;23.50;38.50;;;;;;5033113;28;20230;-72
2023/06/17 03:40:19;;;;;;;4.20;4.00;;;23.50;38.40;;;;;;5038465;28;20245;-73
2023/06/17 03:42:45;;;;;;;4.70;4.50;;;23.50;38.30;;;;;;5035560;28;20299;-73
2023/06/17 03:45:11;;;;;;;4.30;4.10;;;23.50;38.20;;;;;;5038694;28;20233;-73
2023/06/17 03:47:36;;;;;;;4.30;4.00;;;23.40;38.00;;;;;;5043293;28;20228;-72
2023/06/17 03:50:02;;;;;;;4.20;3.80;;;23.50;38.00;;;;;;5040200;28;20215;-73
2023/06/17 03:52:28;;;;;;;4.00;3.70;;;23.50;37.90;;;;;;5039037;28;20253;-73
2023/06/17 03:54:54;;;;;;;3.90;3.70;;;23.40;37.80;;;;;;5040770;28;20236;-73
2023/06/17 03:57:19;;;;;;;4.50;4.30;;;23.40;37.70;;;;;;5039855;28;20214;-72
2023/06/17 03:59:46;;;;;;;3.90;3.70;;;23.40;37.60;;;;;;5039664;28;20505;-73
2023/06/17 04:02:11;;;;;;;4.03;3.83;;;23.40;37.60;;;;;;5042673;28;20246;-73
2023/06/17 04:04:38;;;;;;;4.07;3.87;;;23.40;37.50;;;;;;5040726;28;20790;-73
2023/06/17 04:07:04;;;;;;;4.70;4.40;;;23.40;37.40;;;;;;5037638;28;20713;-76
2023/06/17 04:09:29;;;;;;;4.43;4.10;;;23.40;37.30;;;;;;5038638;28;20980;-74
2023/06/17 04:11:55;;;;;;;3.67;3.47;;;23.40;37.20;;;;;;5029589;28;20428;-75
2023/06/17 04:14:20;;;;;;;4.10;3.90;;;23.40;37.20;;;;;;5039367;28;20224;-74
2023/06/17 04:16:46;;;;;;;4.00;3.80;;;23.40;37.00;;;;;;5041932;28;20272;-73
2023/06/17 04:19:13;;;;;;;4.43;4.13;;;23.40;37.00;;;;;;5038063;28;20234;-73
2023/06/17 04:21:39;;;;;;;5.13;4.77;;;23.40;36.90;;;;;;5042121;28;20220;-73
2023/06/17 04:24:05;;;;;;;3.90;3.70;;;23.40;36.80;;;;;;5037176;28;20981;-73
2023/06/17 04:26:31;;;;;;;4.10;3.90;;;23.40;36.70;;;;;;5036267;28;20458;-73
2023/06/17 04:28:56;;;;;;;3.90;3.70;;;23.40;37.50;;;;;;5041766;28;20561;-73
2023/06/17 04:31:22;;;;;;;4.33;4.03;;;23.40;36.70;;;;;;5038856;28;20314;-73
2023/06/17 04:33:48;;;;;;;4.00;3.80;;;23.40;36.70;;;;;;5033720;28;20245;-73
2023/06/17 04:36:14;;;;;;;4.40;4.13;;;23.40;36.70;;;;;;5039637;28;20802;-73
2023/06/17 04:38:40;;;;;;;4.10;3.90;;;23.40;36.60;;;;;;5036801;28;20444;-73
2023/06/17 04:41:05;;;;;;;4.10;3.80;;;23.40;36.60;;;;;;5032557;28;20230;-73
2023/06/17 04:43:33;;;;;;;4.80;4.40;;;23.40;36.60;;;;;;5033071;28;20218;-71
2023/06/17 04:45:59;;;;;;;4.70;4.50;;;23.40;36.60;;;;;;5035006;28;20218;-72
2023/06/17 04:48:25;;;;;;;4.50;4.20;;;23.40;36.60;;;;;;5036161;28;20824;-72
2023/06/17 04:50:52;;;;;;;4.27;3.90;;;23.40;36.70;;;;;;5038438;28;20443;-74
2023/06/17 04:53:18;;;;;;;3.80;3.57;;;23.40;36.60;;;;;;5038129;28;20214;-72
2023/06/17 04:55:43;;;;;;;6.53;3.60;;;23.40;36.60;;;;;;5036346;28;20978;-72
2023/06/17 04:58:09;;;;;;;4.00;3.70;;;23.50;36.70;;;;;;5036615;28;20222;-72
2023/06/17 05:00:34;;;;;;;3.70;3.50;;;23.40;36.60;;;;;;5038509;28;20214;-72
2023/06/17 05:03:00;;;;;;;3.30;3.13;;;23.50;36.70;;;;;;5041226;28;20368;-73
2023/06/17 05:05:25;;;;;;;3.33;3.13;;;23.50;36.70;;;;;;5038376;28;20229;-73
2023/06/17 05:07:51;;;;;;;4.20;4.00;;;23.40;36.70;;;;;;5038946;28;20213;-73
2023/06/17 05:10:16;;;;;;;3.80;3.60;;;23.50;36.70;;;;;;5042654;28;20251;-73
2023/06/17 05:12:42;;;;;;;3.90;3.70;;;23.50;36.70;;;;;;5037576;28;20245;-73
2023/06/17 05:15:08;;;;;;;4.23;3.97;;;23.50;36.70;;;;;;5041484;28;20242;-73
2023/06/17 05:17:33;;;;;;;4.00;3.80;;;23.50;36.70;;;;;;5041099;28;20209;-72
2023/06/17 05:19:59;;;;;;;4.07;3.87;;;23.50;37.10;;;;;;5040602;28;20455;-73
2023/06/17 05:22:25;;;;;;;4.30;4.07;;;23.50;37.10;;;;;;5038104;28;20234;-73
2023/06/17 05:24:50;;;;;;;4.00;3.80;;;23.50;37.30;;;;;;5039195;28;20214;-73
2023/06/17 05:27:16;;;;;;;3.90;3.70;;;23.50;37.40;;;;;;5041677;28;20246;-72
2023/06/17 05:29:42;;;;;;;4.00;3.73;;;23.50;37.50;;;;;;5035155;28;20258;-73
2023/06/17 05:32:07;;;;;;;3.70;3.50;;;23.50;37.60;;;;;;5040045;28;20261;-73
2023/06/17 05:34:33;;;;;;;4.10;3.90;;;23.50;37.70;;;;;;5041522;28;20292;-73
2023/06/17 05:36:59;;;;;;;3.47;3.27;;;23.50;37.80;;;;;;5042450;28;20230;-73
2023/06/17 05:39:24;;;;;;;3.90;3.70;;;23.50;37.80;;;;;;5036247;28;20774;-73
2023/06/17 05:41:50;;;;;;;3.87;3.67;;;23.50;37.90;;;;;;5038586;28;20597;-70
2023/06/17 05:44:15;;;;;;;3.43;3.23;;;23.50;38.00;;;;;;5038681;28;21110;-69
2023/06/17 05:46:41;;;;;;;3.33;3.13;;;23.50;38.00;;;;;;5042058;28;20219;-69
2023/06/17 05:49:06;;;;;;;4.00;3.80;;;23.50;38.20;;;;;;5036852;28;20320;-69
2023/06/17 05:51:32;;;;;;;3.97;3.77;;;23.50;38.10;;;;;;5033129;28;20218;-68
2023/06/17 05:53:57;;;;;;;3.70;3.50;;;23.50;38.20;;;;;;5030592;28;20221;-68
2023/06/17 05:56:23;;;;;;;3.73;3.53;;;23.50;38.20;;;;;;5030808;28;20618;-67
2023/06/17 05:58:48;;;;;;;3.70;3.47;;;23.60;38.40;;;;;;5028885;28;20692;-71
2023/06/17 06:01:15;;;;;;;4.10;3.90;;;23.50;38.30;;;;;;5030622;28;20843;-71
2023/06/17 06:03:40;;;;;;;3.40;3.20;;;23.50;38.40;;;;;;5027629;28;20263;-71
2023/06/17 06:06:06;;;;;;;3.97;3.77;;;23.50;38.40;;;;;;5028561;28;20465;-71
2023/06/17 06:08:31;;;;;;;4.00;3.80;;;23.60;38.50;;;;;;5027739;28;20226;-71
2023/06/17 06:10:57;;;;;;;3.80;3.60;;;23.60;38.50;;;;;;5037057;28;20217;-70
2023/06/17 06:13:22;;;;;;;3.33;3.13;;;23.60;38.50;;;;;;5036618;28;20237;-68
2023/06/17 06:15:48;;;;;;;3.43;3.23;;;23.60;38.60;;;;;;5039103;28;20218;-68
2023/06/17 06:18:14;;;;;;;3.57;3.37;;;23.60;38.60;;;;;;5037140;28;20763;-68
2023/06/17 06:20:40;;;;;;;3.50;3.30;;;23.60;38.60;;;;;;5039642;28;20708;-66
2023/06/17 06:23:05;;;;;;;4.20;4.00;;;23.60;38.60;;;;;;5034467;28;20479;-66
2023/06/17 06:25:31;;;;;;;3.40;3.20;;;23.60;38.60;;;;;;5034427;28;20226;-67
2023/06/17 06:27:58;;;;;;;3.27;3.07;;;23.60;38.60;;;;;;5037605;28;21176;-66
2023/06/17 06:30:24;;;;;;;3.73;3.53;;;23.60;38.70;;;;;;5031000;28;20747;-67
2023/06/17 06:32:49;;;;;;;3.30;3.10;;;23.60;38.70;;;;;;5035165;28;20451;-69
2023/06/17 06:35:15;;;;;;;4.20;3.90;;;23.60;38.70;;;;;;5039384;28;20832;-68
2023/06/17 06:37:41;;;;;;;4.37;4.17;;;23.60;38.80;;;;;;5036693;28;22904;-68
2023/06/17 06:40:07;;;;;;;3.67;3.47;;;23.60;38.80;;;;;;5037406;28;20779;-68
2023/06/17 06:42:32;;;;;;;3.80;3.60;;;23.60;38.80;;;;;;5033892;28;20941;-67
2023/06/17 06:44:58;;;;;;;3.20;3.00;;;23.60;38.80;;;;;;5037797;28;20520;-68
2023/06/17 06:47:23;;;;;;;3.87;3.57;;;23.60;38.80;;;;;;5037984;28;20218;-68
2023/06/17 06:49:49;;;;;;;3.80;3.60;;;23.60;38.80;;;;;;5039205;28;20719;-67
2023/06/17 06:52:15;;;;;;;3.63;3.43;;;23.60;38.80;;;;;;5038422;28;20591;-68
2023/06/17 06:54:40;;;;;;;3.53;3.33;;;23.60;38.90;;;;;;5038749;28;20225;-67
2023/06/17 06:57:06;;;;;;;4.43;4.23;;;23.60;38.90;;;;;;5041428;28;20309;-68
2023/06/17 06:59:31;;;;;;;3.30;3.10;;;23.60;38.90;;;;;;5043253;28;20257;-67
2023/06/17 07:01:57;;;;;;;4.10;3.90;;;23.60;38.90;;;;;;5040341;28;20238;-67
2023/06/17 07:04:23;;;;;;;3.57;3.37;;;23.60;38.90;;;;;;5036272;28;20709;-68
2023/06/17 07:06:48;;;;;;;3.67;3.47;;;23.60;38.90;;;;;;5040131;28;20272;-67
2023/06/17 07:09:14;;;;;;;3.67;3.43;;;23.60;38.90;;;;;;5039307;28;20218;-67
2023/06/17 07:11:39;;;;;;;3.20;3.00;;;23.60;39.00;;;;;;5037851;28;20237;-67
2023/06/17 07:14:05;;;;;;;3.70;3.37;;;23.60;39.00;;;;;;5041367;28;20217;-67
2023/06/17 07:16:30;;;;;;;3.90;3.70;;;23.60;39.00;;;;;;5035263;28;20323;-67
2023/06/17 07:18:56;;;;;;;4.10;3.80;;;23.60;38.90;;;;;;5032899;28;20246;-69
2023/06/17 07:21:21;;;;;;;3.83;3.63;;;23.60;39.00;;;;;;5036698;28;20214;-72
2023/06/17 07:23:47;;;;;;;3.97;3.77;;;23.60;39.00;;;;;;5042113;28;20214;-68
2023/06/17 07:26:12;;;;;;;4.00;3.80;;;23.60;39.00;;;;;;5046031;28;20253;-68
2023/06/17 07:28:38;;;;;;;4.70;4.27;;;23.60;39.00;;;;;;5037130;28;20279;-68
2023/06/17 07:31:03;;;;;;;3.63;3.43;;;23.60;39.00;;;;;;5040865;28;20226;-66
2023/06/17 07:33:30;;;;;;;7.50;3.70;;;23.60;39.00;;;;;;5038584;28;20218;-67
2023/06/17 07:35:55;;;;;;;4.83;4.03;;;23.60;39.00;;;;;;5037729;28;20542;-67
2023/06/17 07:38:22;;;;;;;8.20;4.00;;;23.60;39.00;;;;;;5039444;28;20447;-67
2023/06/17 07:40:48;;;;;;;5.53;3.90;;;23.60;39.10;;;;;;5041943;28;20274;-68
2023/06/17 07:43:13;;;;;;;3.93;3.60;;;23.60;39.10;;;;;;5057733;28;20450;-72
2023/06/17 07:45:39;;;;;;;3.90;3.63;;;23.60;39.00;;;;;;5038315;28;20257;-71
2023/06/17 07:48:04;;;;;;;3.90;3.53;;;23.60;39.10;;;;;;5041319;28;20249;-73
2023/06/17 07:50:30;;;;;;;3.77;3.57;;;23.60;39.10;;;;;;5043881;28;20305;-70
2023/06/17 07:52:57;;;;;;;4.53;3.90;;;23.60;39.10;;;;;;5040402;28;20230;-69
2023/06/17 07:55:22;;;;;;;6.57;3.77;;;23.70;39.20;;;;;;5049071;28;21899;-70
2023/06/17 07:57:48;;;;;;;4.40;4.10;;;23.60;39.10;;;;;;5039922;28;20474;-70
2023/06/17 08:00:14;;;;;;;6.90;4.03;;;23.70;39.20;;;;;;5035340;28;20222;-71
2023/06/17 08:02:40;;;;;;;6.17;4.20;;;23.60;39.20;;;;;;5036037;28;20284;-70
2023/06/17 08:05:07;;;;;;;4.33;4.00;;;23.60;39.20;;;;;;5039403;28;21065;-71
2023/06/17 08:07:33;;;;;;;5.83;4.27;;;23.70;39.30;;;;;;5042837;28;20451;-76
2023/06/17 08:09:58;;;;;;;6.07;4.63;;;23.70;39.30;;;;;;5041503;28;20469;-73
2023/06/17 08:12:24;;;;;;;9.23;4.10;;;23.70;39.30;;;;;;5041905;28;20225;-72
2023/06/17 08:14:50;;;;;;;11.40;4.77;;;23.70;39.30;;;;;;5043327;28;20256;-71
2023/06/17 08:17:15;;;;;;;5.57;4.30;;;23.70;39.50;;;;;;5040393;28;20305;-73
2023/06/17 08:19:42;;;;;;;10.77;3.83;;;23.70;39.50;;;;;;5041612;28;20546;-70
2023/06/17 08:22:08;;;;;;;5.73;3.80;;;23.70;39.60;;;;;;5037163;28;20229;-71
2023/06/17 08:24:33;;;;;;;7.30;5.40;;;23.70;39.60;;;;;;5031839;28;20459;-72
2023/06/17 08:26:59;;;;;;;18.97;7.33;;;23.70;39.80;;;;;;5034172;28;20261;-67
2023/06/17 08:29:25;;;;;;;69.77;13.27;;;23.80;40.00;;;;;;5041063;28;20213;-69
2023/06/17 08:31:52;;;;;;;184.97;18.30;;;23.70;39.90;;;;;;5035372;28;20681;-72
2023/06/17 08:34:18;;;;;;;101.90;16.77;;;23.70;40.10;;;;;;5034461;28;20215;-70
2023/06/17 08:36:46;;;;;;;86.27;12.17;;;23.80;40.50;;;;;;5041494;28;20443;-73
2023/06/17 08:39:12;;;;;;;80.87;13.50;;;23.80;40.70;;;;;;5037773;28;20570;-73
2023/06/17 08:41:40;;;;;;;133.03;17.20;;;23.90;41.00;;;;;;5031081;28;20467;-75
2023/06/17 08:44:07;;;;;;;136.50;16.33;;;23.90;41.30;;;;;;5006738;28;20590;-73
2023/06/17 08:46:33;;;;;;;122.80;15.97;;;23.90;41.20;;;;;;5040651;28;21041;-71
2023/06/17 08:48:59;;;;;;;141.57;18.40;;;23.90;41.40;;;;;;5041825;28;20467;-71
2023/06/17 08:51:25;;;;;;;147.70;17.27;;;24.00;41.50;;;;;;5041389;28;20490;-74
2023/06/17 08:53:52;;;;;;;110.17;17.90;;;24.00;41.70;;;;;;5041307;28;20583;-75
2023/06/17 08:56:18;;;;;;;126.30;16.50;;;24.00;42.10;;;;;;5039217;28;21044;-74
2023/06/17 08:58:44;;;;;;;46.07;11.30;;;24.00;41.80;;;;;;5039994;28;20451;-75
2023/06/17 09:01:10;;;;;;;66.40;12.10;;;24.00;41.80;;;;;;5042913;28;20965;-75
2023/06/17 09:03:39;;;;;;;51.17;12.20;;;24.10;41.90;;;;;;5041118;28;20505;-76
2023/06/17 09:06:16;;;;;;;49.73;12.40;;;24.10;41.90;;;;;;5042743;28;20994;-76
2023/06/17 09:08:42;;;;;;;40.80;11.60;;;24.10;41.80;;;;;;5055868;28;20476;-77
2023/06/17 09:11:07;;;;;;;62.53;12.53;;;24.00;41.80;;;;;;5042458;28;20801;-76
2023/06/17 09:13:33;;;;;;;40.47;11.80;;;24.00;41.80;;;;;;5041155;28;20213;-73
2023/06/17 09:15:59;;;;;;;41.67;10.27;;;24.00;41.80;;;;;;5041179;28;20715;-74
2023/06/17 09:18:25;;;;;;;44.93;10.47;;;24.00;41.80;;;;;;5039948;28;20214;-75
2023/06/17 09:20:55;;;;;;;41.37;9.77;;;24.00;41.70;;;;;;5041234;28;20485;-73
2023/06/17 09:23:22;;;;;;;37.30;10.13;;;24.00;41.70;;;;;;5042931;28;20716;-74
2023/06/17 09:25:48;;;;;;;27.83;9.20;;;24.00;41.70;;;;;;5041912;28;20455;-73
2023/06/17 09:28:15;;;;;;;35.10;8.60;;;24.00;41.60;;;;;;5037410;28;20860;-74
2023/06/17 09:30:43;;;;;;;26.63;8.53;;;24.00;41.50;;;;;;5038898;28;20256;-74
2023/06/17 09:33:22;;;;;;;36.60;9.60;;;24.00;41.50;;;;;;5040508;28;20541;-74
2023/06/17 09:36:01;;;;;;;24.83;8.83;;;24.00;41.40;;;;;;5041433;28;20478;-73
2023/06/17 09:38:27;;;;;;;25.20;10.03;;;24.10;41.50;;;;;;5040376;28;20447;-74
2023/06/17 09:40:54;;;;;;;25.10;8.03;;;24.10;41.30;;;;;;5041736;28;20443;-73
2023/06/17 09:43:24;;;;;;;28.07;7.93;;;24.10;41.30;;;;;;5036903;28;20467;-74
2023/06/17 09:45:54;;;;;;;22.10;8.47;;;24.10;41.20;;;;;;5038700;28;20455;-73
2023/06/17 12:12:34;;;;;;;5.50;4.73;;;24.20;42.00;;;;;;5031677;28;20627;-73
2023/06/17 12:15:04;;;;;;;5.10;4.20;;;24.20;42.00;;;;;;5031586;28;20464;-73
2023/06/17 12:17:37;;;;;;;4.73;4.03;;;24.20;41.90;;;;;;5031526;28;21001;-73
2023/06/17 12:20:05;;;;;;;3.80;3.50;;;24.20;42.00;;;;;;5039694;28;20592;-73
2023/06/17 12:22:31;;;;;;;4.50;4.10;;;24.20;42.00;;;;;;5039779;28;20559;-73
2023/06/17 12:24:56;;;;;;;5.90;3.70;;;24.20;42.00;;;;;;5034901;28;20509;-73
2023/06/17 12:27:29;;;;;;;4.03;3.73;;;24.20;41.90;;;;;;5042732;28;20223;-74
2023/06/17 12:29:57;;;;;;;4.50;4.10;;;24.20;41.90;;;;;;5036663;28;20234;-74
2023/06/17 12:32:23;;;;;;;6.17;3.57;;;24.20;41.90;;;;;;5039454;28;20531;-74
2023/06/17 12:34:48;;;;;;;3.87;3.43;;;24.20;41.90;;;;;;5042227;28;20559;-73
2023/06/17 12:37:15;;;;;;;3.40;3.10;;;24.20;41.80;;;;;;5035845;28;20308;-73
2023/06/17 12:39:41;;;;;;;4.80;4.10;;;24.20;41.80;;;;;;5043101;28;20237;-73
2023/06/17 12:42:07;;;;;;;5.20;4.77;;;24.20;41.80;;;;;;5034118;28;20468;-73
2023/06/17 12:44:33;;;;;;;4.07;3.77;;;24.20;41.70;;;;;;5034442;28;20817;-74
2023/06/17 12:46:59;;;;;;;6.43;4.87;;;24.20;41.70;;;;;;5039777;28;20237;-74
2023/06/17 12:49:25;;;;;;;6.17;4.37;;;24.20;41.80;;;;;;5031902;28;20475;-73
2023/06/17 12:51:51;;;;;;;4.67;4.33;;;24.20;41.70;;;;;;5040049;28;20226;-74
2023/06/17 12:54:16;;;;;;;8.67;4.60;;;24.20;41.70;;;;;;5039272;28;20941;-74
2023/06/17 12:56:42;;;;;;;5.43;4.87;;;24.20;41.70;;;;;;5042457;28;20232;-74
2023/06/17 12:59:07;;;;;;;5.07;4.23;;;24.20;41.70;;;;;;5037316;28;20234;-74
2023/06/17 13:01:34;;;;;;;3.80;3.60;;;24.20;41.70;;;;;;5039490;28;20765;-74
2023/06/17 13:03:59;;;;;;;4.50;3.67;;;24.10;41.70;;;;;;5030524;28;20211;-74
2023/06/17 13:06:26;;;;;;;4.87;3.97;;;24.20;41.60;;;;;;5040453;28;21127;-74
2023/06/17 13:08:51;;;;;;;4.80;4.00;;;24.20;41.70;;;;;;5032611;28;20226;-74
2023/06/17 13:11:17;;;;;;;4.60;3.93;;;24.20;41.60;;;;;;5036843;28;20467;-74
2023/06/17 13:13:42;;;;;;;4.30;3.90;;;24.10;41.60;;;;;;5034733;28;20737;-74
2023/06/17 13:16:08;;;;;;;4.50;4.17;;;24.20;41.60;;;;;;5039296;28;20221;-74
2023/06/17 13:18:34;;;;;;;4.87;4.10;;;24.20;41.70;;;;;;5033821;28;20221;-74
2023/06/17 13:20:59;;;;;;;5.50;4.20;;;24.10;41.60;;;;;;5024760;28;20214;-74
2023/06/17 13:23:25;;;;;;;4.33;3.93;;;24.20;41.60;;;;;;5039082;28;20953;-74
2023/06/17 13:25:50;;;;;;;4.50;4.10;;;24.20;41.70;;;;;;5040799;28;20218;-73
2023/06/17 13:28:18;;;;;;;4.20;3.90;;;24.10;41.60;;;;;;5035960;28;20225;-73
2023/06/17 13:30:44;;;;;;;4.97;4.47;;;24.20;41.60;;;;;;5038329;28;20222;-73
2023/06/17 13:33:09;;;;;;;5.10;4.60;;;24.10;41.60;;;;;;5033868;28;20473;-74
2023/06/17 13:35:35;;;;;;;4.80;4.10;;;24.10;41.60;;;;;;5040308;28;20233;-75
2023/06/17 13:38:02;;;;;;;5.00;4.50;;;24.10;41.60;;;;;;5026728;28;20230;-74
2023/06/17 13:40:28;;;;;;;4.20;3.90;;;24.10;41.60;;;;;;5028026;28;20308;-71
2023/06/17 13:42:54;;;;;;;5.00;4.60;;;24.10;41.60;;;;;;5030802;28;20462;-75
2023/06/17 13:45:19;;;;;;;4.10;3.77;;;24.10;41.60;;;;;;5034858;28;20268;-75
2023/06/17 13:47:45;;;;;;;4.00;3.53;;;24.10;41.50;;;;;;5030506;28;20276;-75
2023/06/17 13:50:11;;;;;;;3.77;3.53;;;24.10;41.50;;;;;;5032903;28;20619;-78
2023/06/17 13:52:37;;;;;;;4.20;3.20;;;24.10;41.50;;;;;;5036344;28;20682;-77
2023/06/17 13:55:02;;;;;;;3.73;3.43;;;24.10;41.30;;;;;;5032208;28;20291;-76
2023/06/17 13:57:28;;;;;;;4.40;3.10;;;24.20;41.50;;;;;;5037520;28;20235;-77
2023/06/17 13:59:53;;;;;;;3.57;3.23;;;24.20;41.40;;;;;;5035154;28;20277;-78
2023/06/17 14:02:19;;;;;;;4.57;3.20;;;24.20;41.30;;;;;;5036696;28;20240;-76
2023/06/17 14:04:44;;;;;;;3.87;3.57;;;24.20;41.30;;;;;;5033685;28;20316;-76
2023/06/17 14:07:11;;;;;;;3.63;3.40;;;24.20;41.30;;;;;;5037364;28;20230;-77
2023/06/17 14:09:37;;;;;;;13.83;4.40;;;24.20;41.30;;;;;;5035484;28;20525;-79
2023/06/17 14:12:02;;;;;;;66.10;17.60;;;24.20;41.20;;;;;;5035232;28;20230;-77
2023/06/17 14:14:28;;;;;;;27.90;9.27;;;24.20;41.20;;;;;;5033888;28;20723;-79
2023/06/17 14:16:56;;;;;;;33.77;7.40;;;24.20;41.20;;;;;;5037490;28;20221;-78
2023/06/17 14:19:22;;;;;;;14.50;7.70;;;24.20;41.20;;;;;;5034930;28;20217;-73
2023/06/17 14:21:56;;;;;;;14.30;6.17;;;24.30;41.30;;;;;;5033557;28;20793;-74
2023/06/17 14:24:22;;;;;;;14.73;6.10;;;24.20;41.20;;;;;;5037240;28;20214;-79
2023/06/17 14:27:11;;;;;;;21.33;6.50;;;24.20;41.20;;;;;;5036683;28;20451;-80
2023/06/17 14:29:37;;;;;;;5.70;4.40;;;24.20;41.30;;;;;;5033420;28;20547;-80
2023/06/17 14:32:02;;;;;;;9.97;5.43;;;24.20;41.30;;;;;;5040872;28;20517;-78
2023/06/17 14:34:28;;;;;;;8.00;5.07;;;24.20;41.30;;;;;;5032153;28;21068;-77
2023/06/17 14:36:54;;;;;;;7.30;4.50;;;24.20;41.30;;;;;;5037173;28;20309;-75
2023/06/17 14:39:19;;;;;;;4.67;4.20;;;24.20;41.30;;;;;;5029494;28;20230;-78
2023/06/17 14:41:45;;;;;;;9.30;4.20;;;24.20;41.30;;;;;;5027154;28;20254;-78
2023/06/17 14:44:10;;;;;;;4.90;4.00;;;24.20;41.30;;;;;;5033100;28;20329;-78
2023/06/17 14:46:36;;;;;;;4.07;3.77;;;24.20;41.30;;;;;;5031781;28;20689;-78
2023/06/17 14:49:01;;;;;;;7.30;4.00;;;24.20;41.40;;;;;;5033560;28;20213;-79
2023/06/17 14:51:27;;;;;;;6.03;3.50;;;24.10;41.30;;;;;;5037516;28;20308;-78
2023/06/17 14:53:53;;;;;;;4.77;3.23;;;24.10;41.20;;;;;;5033108;28;20322;-79
2023/06/17 14:56:30;;;;;;;4.20;3.10;;;24.10;41.20;;;;;;5037883;28;20261;-79
2023/06/17 14:58:57;;;;;;;3.53;3.23;;;24.10;41.20;;;;;;5036698;28;20668;-79
2023/06/17 15:01:23;;;;;;;3.00;2.80;;;24.10;41.20;;;;;;5054185;28;20487;-79
2023/06/17 15:03:49;;;;;;;4.53;3.67;;;24.10;41.20;;;;;;5028579;28;21297;-79
2023/06/17 15:06:15;;;;;;;3.23;2.90;;;24.10;41.20;;;;;;5034691;28;20530;-80